sensor_id;sensor_type;location;lat;lon;timestamp;pressure;altitude;pressure_sealevel;temperature;humidity
74474;BME280;62922;-6.168;106.796;2023-07-20T00:00:35;100880.19;;;30.92;50.18
74474;BME280;62922;-6.168;106.796;2023-07-20T00:03:11;100883.34;;;30.90;50.23
74474;BME280;62922;-6.168;106.796;2023-07-20T00:05:46;100881.03;;;30.84;49.32
74474;BME280;62922;-6.168;106.796;2023-07-20T00:08:12;100890.50;;;30.88;49.65
74474;BME280;62922;-6.168;106.796;2023-07-20T00:10:40;100894.63;;;30.90;49.87
74474;BME280;62922;-6.168;106.796;2023-07-20T00:13:07;100892.97;;;30.89;49.87
74474;BME280;62922;-6.168;106.796;2023-07-20T00:15:34;100852.16;;;30.61;49.11
74474;BME280;62922;-6.168;106.796;2023-07-20T00:18:00;100898.44;;;30.86;49.51
74474;BME280;62922;-6.168;106.796;2023-07-20T00:20:27;100908.72;;;30.90;49.34
74474;BME280;62922;-6.168;106.796;2023-07-20T00:22:53;100888.28;;;30.76;49.70
74474;BME280;62922;-6.168;106.796;2023-07-20T00:25:20;100917.16;;;30.90;49.93
74474;BME280;62922;-6.168;106.796;2023-07-20T00:27:47;100910.50;;;30.78;49.11
74474;BME280;62922;-6.168;106.796;2023-07-20T00:30:13;100933.25;;;30.90;49.33
74474;BME280;62922;-6.168;106.796;2023-07-20T00:32:41;100908.34;;;30.75;48.99
74474;BME280;62922;-6.168;106.796;2023-07-20T00:35:07;100937.22;;;30.89;49.29
74474;BME280;62922;-6.168;106.796;2023-07-20T00:37:34;100891.59;;;30.61;48.61
74474;BME280;62922;-6.168;106.796;2023-07-20T00:40:00;100904.50;;;30.62;48.60
74474;BME280;62922;-6.168;106.796;2023-07-20T00:42:26;100932.38;;;30.81;48.84
74474;BME280;62922;-6.168;106.796;2023-07-20T00:44:53;100871.53;;;30.45;48.85
74474;BME280;62922;-6.168;106.796;2023-07-20T00:47:19;100943.03;;;30.84;48.71
74474;BME280;62922;-6.168;106.796;2023-07-20T00:49:45;100943.97;;;30.79;48.91
74474;BME280;62922;-6.168;106.796;2023-07-20T00:52:13;100945.34;;;30.82;48.91
74474;BME280;62922;-6.168;106.796;2023-07-20T00:54:41;100948.16;;;30.82;48.74
74474;BME280;62922;-6.168;106.796;2023-07-20T00:57:10;100947.13;;;30.78;48.28
74474;BME280;62922;-6.168;106.796;2023-07-20T00:59:39;100919.25;;;30.59;48.74
74474;BME280;62922;-6.168;106.796;2023-07-20T01:02:05;100930.22;;;30.69;48.43
74474;BME280;62922;-6.168;106.796;2023-07-20T01:04:32;100945.47;;;30.77;48.77
74474;BME280;62922;-6.168;106.796;2023-07-20T01:10:01;100965.25;;;30.85;48.29
74474;BME280;62922;-6.168;106.796;2023-07-20T01:12:36;100972.84;;;30.85;48.22
74474;BME280;62922;-6.168;106.796;2023-07-20T01:15:07;100954.09;;;30.80;48.55
74474;BME280;62922;-6.168;106.796;2023-07-20T01:17:34;100941.50;;;30.69;48.56
74474;BME280;62922;-6.168;106.796;2023-07-20T01:20:00;100957.72;;;30.81;48.28
74474;BME280;62922;-6.168;106.796;2023-07-20T01:30:29;100939.13;;;30.62;48.40
74474;BME280;62922;-6.168;106.796;2023-07-20T01:33:02;100931.34;;;30.59;49.09
74474;BME280;62922;-6.168;106.796;2023-07-20T01:35:30;100939.13;;;30.62;49.02
74474;BME280;62922;-6.168;106.796;2023-07-20T01:38:00;100976.34;;;30.82;48.83
74474;BME280;62922;-6.168;106.796;2023-07-20T01:40:27;100981.81;;;30.87;49.00
74474;BME280;62922;-6.168;106.796;2023-07-20T01:42:53;100978.81;;;30.83;49.32
74474;BME280;62922;-6.168;106.796;2023-07-20T01:45:20;100977.97;;;30.83;48.60
74474;BME280;62922;-6.168;106.796;2023-07-20T01:47:49;100964.03;;;30.78;48.85
74474;BME280;62922;-6.168;106.796;2023-07-20T01:50:16;100982.97;;;30.86;48.69
74474;BME280;62922;-6.168;106.796;2023-07-20T01:52:42;100977.34;;;30.86;48.72
74474;BME280;62922;-6.168;106.796;2023-07-20T01:55:11;100972.84;;;30.85;48.47
74474;BME280;62922;-6.168;106.796;2023-07-20T01:57:38;100975.69;;;30.85;49.30
74474;BME280;62922;-6.168;106.796;2023-07-20T02:00:04;100934.00;;;30.64;49.33
74474;BME280;62922;-6.168;106.796;2023-07-20T02:02:31;100968.91;;;30.86;49.00
74474;BME280;62922;-6.168;106.796;2023-07-20T02:04:57;100953.13;;;30.85;49.56
74474;BME280;62922;-6.168;106.796;2023-07-20T02:07:24;100904.00;;;30.51;49.95
74474;BME280;62922;-6.168;106.796;2023-07-20T02:09:50;100945.78;;;30.75;49.92
74474;BME280;62922;-6.168;106.796;2023-07-20T02:12:16;100964.91;;;30.87;49.42
74474;BME280;62922;-6.168;106.796;2023-07-20T02:14:43;100918.59;;;30.62;48.55
74474;BME280;62922;-6.168;106.796;2023-07-20T02:17:09;100966.41;;;30.93;49.18
74474;BME280;62922;-6.168;106.796;2023-07-20T02:19:37;100963.09;;;30.91;49.37
74474;BME280;62922;-6.168;106.796;2023-07-20T02:22:04;100928.53;;;30.68;48.37
74474;BME280;62922;-6.168;106.796;2023-07-20T02:24:34;100962.59;;;30.89;48.66
74474;BME280;62922;-6.168;106.796;2023-07-20T02:27:00;100924.25;;;30.71;48.50
74474;BME280;62922;-6.168;106.796;2023-07-20T02:29:26;100951.66;;;30.87;49.15
74474;BME280;62922;-6.168;106.796;2023-07-20T02:31:53;100927.56;;;30.73;48.55
74474;BME280;62922;-6.168;106.796;2023-07-20T02:34:19;100959.09;;;30.92;48.67
74474;BME280;62922;-6.168;106.796;2023-07-20T02:36:46;100938.16;;;30.76;48.86
74474;BME280;62922;-6.168;106.796;2023-07-20T02:39:13;100952.16;;;30.89;48.40
74474;BME280;62922;-6.168;106.796;2023-07-20T02:41:42;100951.00;;;30.90;48.53
74474;BME280;62922;-6.168;106.796;2023-07-20T02:44:08;100948.84;;;30.96;48.20
74474;BME280;62922;-6.168;106.796;2023-07-20T02:46:35;100963.44;;;30.98;48.54
74474;BME280;62922;-6.168;106.796;2023-07-20T02:49:01;100960.63;;;30.98;48.57
74474;BME280;62922;-6.168;106.796;2023-07-20T02:51:27;100918.63;;;30.79;48.01
74474;BME280;62922;-6.168;106.796;2023-07-20T02:53:54;100952.66;;;31.00;47.41
74474;BME280;62922;-6.168;106.796;2023-07-20T02:56:20;100952.66;;;31.08;45.40
74474;BME280;62922;-6.168;106.796;2023-07-20T02:58:46;100947.34;;;31.07;44.66
74474;BME280;62922;-6.168;106.796;2023-07-20T03:01:13;100954.66;;;31.08;46.98
74474;BME280;62922;-6.168;106.796;2023-07-20T03:03:40;100914.03;;;30.83;47.34
74474;BME280;62922;-6.168;106.796;2023-07-20T03:06:07;100956.13;;;31.14;45.54
74474;BME280;62922;-6.168;106.796;2023-07-20T03:08:35;100939.72;;;31.07;44.75
74474;BME280;62922;-6.168;106.796;2023-07-20T03:11:01;100956.63;;;31.24;43.16
74474;BME280;62922;-6.168;106.796;2023-07-20T03:13:28;100954.00;;;31.28;43.27
74474;BME280;62922;-6.168;106.796;2023-07-20T03:15:54;100937.06;;;31.19;43.61
74474;BME280;62922;-6.168;106.796;2023-07-20T03:18:21;100912.88;;;31.01;41.50
74474;BME280;62922;-6.168;106.796;2023-07-20T03:20:47;100943.88;;;31.27;42.83
74474;BME280;62922;-6.168;106.796;2023-07-20T03:23:16;100939.91;;;31.28;44.58
74474;BME280;62922;-6.168;106.796;2023-07-20T03:25:42;100958.66;;;31.41;42.37
74474;BME280;62922;-6.168;106.796;2023-07-20T03:28:11;100927.78;;;31.27;42.22
74474;BME280;62922;-6.168;106.796;2023-07-20T03:30:37;100965.28;;;31.45;45.10
74474;BME280;62922;-6.168;106.796;2023-07-20T03:33:03;100946.50;;;31.32;44.83
74474;BME280;62922;-6.168;106.796;2023-07-20T03:35:30;100942.38;;;31.29;44.34
74474;BME280;62922;-6.168;106.796;2023-07-20T03:37:56;100960.31;;;31.42;46.01
74474;BME280;62922;-6.168;106.796;2023-07-20T03:40:23;100962.47;;;31.45;46.68
74474;BME280;62922;-6.168;106.796;2023-07-20T03:42:49;100955.00;;;31.49;45.18
74474;BME280;62922;-6.168;106.796;2023-07-20T03:45:16;100921.81;;;31.29;45.91
74474;BME280;62922;-6.168;106.796;2023-07-20T03:47:42;100956.84;;;31.53;46.09
74474;BME280;62922;-6.168;106.796;2023-07-20T03:50:10;100896.94;;;31.14;46.81
74474;BME280;62922;-6.168;106.796;2023-07-20T03:52:39;100963.28;;;31.54;46.30
74474;BME280;62922;-6.168;106.796;2023-07-20T03:55:05;100946.53;;;31.49;47.33
74474;BME280;62922;-6.168;106.796;2023-07-20T03:57:32;100952.00;;;31.54;47.04
74474;BME280;62922;-6.168;106.796;2023-07-20T03:59:59;100953.81;;;31.50;46.38
74474;BME280;62922;-6.168;106.796;2023-07-20T04:02:26;100948.53;;;31.57;45.72
74474;BME280;62922;-6.168;106.796;2023-07-20T04:04:54;100911.53;;;31.41;44.24
74474;BME280;62922;-6.168;106.796;2023-07-20T04:07:21;100934.41;;;31.66;43.76
74474;BME280;62922;-6.168;106.796;2023-07-20T04:09:47;100932.75;;;31.65;43.68
74474;BME280;62922;-6.168;106.796;2023-07-20T04:12:13;100934.22;;;31.79;43.10
74474;BME280;62922;-6.168;106.796;2023-07-20T04:14:39;100941.66;;;31.84;45.08
74474;BME280;62922;-6.168;106.796;2023-07-20T04:17:06;100904.34;;;31.61;46.20
74474;BME280;62922;-6.168;106.796;2023-07-20T04:19:32;100942.84;;;31.83;43.57
74474;BME280;62922;-6.168;106.796;2023-07-20T04:21:58;100927.72;;;31.79;42.01
74474;BME280;62922;-6.168;106.796;2023-07-20T04:24:24;100929.91;;;31.90;42.62
74474;BME280;62922;-6.168;106.796;2023-07-20T04:26:51;100885.59;;;31.65;42.23
74474;BME280;62922;-6.168;106.796;2023-07-20T04:29:17;100936.34;;;31.91;45.08
74474;BME280;62922;-6.168;106.796;2023-07-20T04:31:43;100929.91;;;31.90;42.07
74474;BME280;62922;-6.168;106.796;2023-07-20T04:34:09;100919.75;;;31.89;42.30
74474;BME280;62922;-6.168;106.796;2023-07-20T04:36:36;100929.00;;;31.98;42.21
74474;BME280;62922;-6.168;106.796;2023-07-20T04:39:05;100929.00;;;31.98;42.39
74474;BME280;62922;-6.168;106.796;2023-07-20T04:41:34;100862.72;;;31.58;41.73
74474;BME280;62922;-6.168;106.796;2023-07-20T04:44:00;100920.06;;;31.96;42.73
74474;BME280;62922;-6.168;106.796;2023-07-20T04:46:26;100882.28;;;31.72;44.90
74474;BME280;62922;-6.168;106.796;2023-07-20T04:48:52;100925.22;;;31.94;43.55
74474;BME280;62922;-6.168;106.796;2023-07-20T04:51:19;100911.94;;;31.95;44.88
74474;BME280;62922;-6.168;106.796;2023-07-20T04:53:47;100906.44;;;31.98;43.16
74474;BME280;62922;-6.168;106.796;2023-07-20T04:56:14;100897.47;;;31.96;42.53
74474;BME280;62922;-6.168;106.796;2023-07-20T04:58:40;100857.69;;;31.81;42.47
74474;BME280;62922;-6.168;106.796;2023-07-20T05:01:07;100874.75;;;31.93;44.36
74474;BME280;62922;-6.168;106.796;2023-07-20T05:03:33;100864.28;;;31.93;42.65
74474;BME280;62922;-6.168;106.796;2023-07-20T05:06:00;100875.19;;;32.03;41.57
74474;BME280;62922;-6.168;106.796;2023-07-20T05:08:26;100883.81;;;32.07;43.22
74474;BME280;62922;-6.168;106.796;2023-07-20T05:10:53;100882.78;;;32.11;41.58
74474;BME280;62922;-6.168;106.796;2023-07-20T05:13:19;100883.94;;;32.19;41.22
74474;BME280;62922;-6.168;106.796;2023-07-20T05:15:45;100884.06;;;32.22;41.22
74474;BME280;62922;-6.168;106.796;2023-07-20T05:18:12;100880.91;;;32.24;41.38
74474;BME280;62922;-6.168;106.796;2023-07-20T05:20:38;100854.06;;;32.09;40.76
74474;BME280;62922;-6.168;106.796;2023-07-20T05:23:04;100891.50;;;32.27;41.04
74474;BME280;62922;-6.168;106.796;2023-07-20T05:25:31;100883.22;;;32.22;43.59
74474;BME280;62922;-6.168;106.796;2023-07-20T05:27:59;100895.38;;;32.22;44.51
74474;BME280;62922;-6.168;106.796;2023-07-20T05:30:25;100880.97;;;32.15;44.22
74474;BME280;62922;-6.168;106.796;2023-07-20T05:32:52;100878.63;;;32.17;43.77
74474;BME280;62922;-6.168;106.796;2023-07-20T05:35:20;100889.56;;;32.19;44.06
74474;BME280;62922;-6.168;106.796;2023-07-20T05:37:46;100887.25;;;32.21;42.12
74474;BME280;62922;-6.168;106.796;2023-07-20T05:40:14;100895.03;;;32.24;42.64
74474;BME280;62922;-6.168;106.796;2023-07-20T05:42:47;100894.16;;;32.32;42.27
74474;BME280;62922;-6.168;106.796;2023-07-20T05:45:15;100878.91;;;32.24;43.04
74474;BME280;62922;-6.168;106.796;2023-07-20T05:47:42;100881.38;;;32.26;44.17
74474;BME280;62922;-6.168;106.796;2023-07-20T05:50:09;100875.59;;;32.22;44.54
74474;BME280;62922;-6.168;106.796;2023-07-20T05:52:36;100876.09;;;32.24;44.22
74474;BME280;62922;-6.168;106.796;2023-07-20T05:55:05;100865.81;;;32.20;44.51
74474;BME280;62922;-6.168;106.796;2023-07-20T05:57:31;100862.16;;;32.19;45.11
74474;BME280;62922;-6.168;106.796;2023-07-20T05:59:58;100803.03;;;31.85;44.78
74474;BME280;62922;-6.168;106.796;2023-07-20T06:02:24;100849.22;;;32.18;44.06
74474;BME280;62922;-6.168;106.796;2023-07-20T06:04:50;100858.94;;;32.29;44.38
74474;BME280;62922;-6.168;106.796;2023-07-20T06:07:17;100866.06;;;32.35;44.22
74474;BME280;62922;-6.168;106.796;2023-07-20T06:09:43;100846.00;;;32.28;44.08
74474;BME280;62922;-6.168;106.796;2023-07-20T06:12:09;100850.97;;;32.31;44.79
74474;BME280;62922;-6.168;106.796;2023-07-20T06:14:36;100856.75;;;32.35;45.45
74474;BME280;62922;-6.168;106.796;2023-07-20T06:17:04;100845.31;;;32.31;45.24
74474;BME280;62922;-6.168;106.796;2023-07-20T06:19:30;100805.06;;;32.14;45.49
74474;BME280;62922;-6.168;106.796;2023-07-20T06:21:57;100809.38;;;32.11;45.64
74474;BME280;62922;-6.168;106.796;2023-07-20T06:24:23;100827.66;;;32.34;44.07
74474;BME280;62922;-6.168;106.796;2023-07-20T06:26:49;100824.34;;;32.32;44.87
74474;BME280;62922;-6.168;106.796;2023-07-20T06:29:16;100827.00;;;32.37;44.97
74474;BME280;62922;-6.168;106.796;2023-07-20T06:31:44;100798.31;;;32.27;44.55
74474;BME280;62922;-6.168;106.796;2023-07-20T06:34:11;100769.53;;;32.13;43.35
74474;BME280;62922;-6.168;106.796;2023-07-20T06:36:37;100775.72;;;32.27;43.65
74474;BME280;62922;-6.168;106.796;2023-07-20T06:39:04;100760.31;;;32.24;43.56
74474;BME280;62922;-6.168;106.796;2023-07-20T06:41:30;100756.13;;;32.30;43.66
74474;BME280;62922;-6.168;106.796;2023-07-20T06:43:56;100773.34;;;32.37;44.34
74474;BME280;62922;-6.168;106.796;2023-07-20T06:46:25;100785.56;;;32.50;44.18
74474;BME280;62922;-6.168;106.796;2023-07-20T06:48:52;100790.16;;;32.54;43.32
74474;BME280;62922;-6.168;106.796;2023-07-20T06:51:19;100803.53;;;32.66;44.67
74474;BME280;62922;-6.168;106.796;2023-07-20T06:53:46;100759.31;;;32.49;45.28
74474;BME280;62922;-6.168;106.796;2023-07-20T06:56:12;100773.97;;;32.64;45.96
74474;BME280;62922;-6.168;106.796;2023-07-20T06:58:39;100785.00;;;32.77;46.61
74474;BME280;62922;-6.168;106.796;2023-07-20T07:01:06;100766.25;;;32.73;46.81
74474;BME280;62922;-6.168;106.796;2023-07-20T07:03:32;100772.03;;;32.76;47.25
74474;BME280;62922;-6.168;106.796;2023-07-20T07:06:00;100783.47;;;32.80;46.91
74474;BME280;62922;-6.168;106.796;2023-07-20T07:08:26;100777.34;;;32.78;46.77
74474;BME280;62922;-6.168;106.796;2023-07-20T07:10:53;100775.66;;;32.77;47.11
74474;BME280;62922;-6.168;106.796;2023-07-20T07:13:19;100760.59;;;32.73;46.61
74474;BME280;62922;-6.168;106.796;2023-07-20T07:15:46;100744.06;;;32.63;47.00
74474;BME280;62922;-6.168;106.796;2023-07-20T07:18:12;100766.03;;;32.78;46.03
74474;BME280;62922;-6.168;106.796;2023-07-20T07:20:38;100769.00;;;32.81;44.78
74474;BME280;62922;-6.168;106.796;2023-07-20T07:23:05;100765.22;;;32.77;44.95
74474;BME280;62922;-6.168;106.796;2023-07-20T07:25:31;100769.00;;;32.81;45.20
74474;BME280;62922;-6.168;106.796;2023-07-20T07:27:58;100695.06;;;32.38;46.20
74474;BME280;62922;-6.168;106.796;2023-07-20T07:30:24;100758.22;;;32.75;47.52
74474;BME280;62922;-6.168;106.796;2023-07-20T07:32:50;100747.63;;;32.72;46.28
74474;BME280;62922;-6.168;106.796;2023-07-20T07:35:16;100749.75;;;32.75;45.46
74474;BME280;62922;-6.168;106.796;2023-07-20T07:37:43;100741.97;;;32.72;45.61
74474;BME280;62922;-6.168;106.796;2023-07-20T07:40:09;100761.34;;;32.82;45.46
74474;BME280;62922;-6.168;106.796;2023-07-20T07:42:37;100755.34;;;32.83;46.68
74474;BME280;62922;-6.168;106.796;2023-07-20T07:45:04;100754.97;;;32.73;47.21
74474;BME280;62922;-6.168;106.796;2023-07-20T07:47:32;100764.38;;;32.77;47.47
74474;BME280;62922;-6.168;106.796;2023-07-20T07:49:58;100721.06;;;32.52;46.86
74474;BME280;62922;-6.168;106.796;2023-07-20T07:52:25;100757.78;;;32.73;47.13
74474;BME280;62922;-6.168;106.796;2023-07-20T07:54:52;100764.38;;;32.77;46.35
74474;BME280;62922;-6.168;106.796;2023-07-20T07:57:18;100702.53;;;32.42;44.79
74474;BME280;62922;-6.168;106.796;2023-07-20T07:59:44;100756.72;;;32.77;45.66
74474;BME280;62922;-6.168;106.796;2023-07-20T08:02:10;100768.88;;;32.78;47.04
74474;BME280;62922;-6.168;106.796;2023-07-20T08:04:37;100774.16;;;32.79;47.15
74474;BME280;62922;-6.168;106.796;2023-07-20T08:07:07;100727.06;;;32.50;47.08
74474;BME280;62922;-6.168;106.796;2023-07-20T08:09:34;100776.03;;;32.75;47.25
74474;BME280;62922;-6.168;106.796;2023-07-20T08:12:00;100730.22;;;32.49;44.92
74474;BME280;62922;-6.168;106.796;2023-07-20T08:14:27;100767.31;;;32.80;44.57
74474;BME280;62922;-6.168;106.796;2023-07-20T08:16:53;100768.63;;;32.83;46.62
74474;BME280;62922;-6.168;106.796;2023-07-20T08:19:22;100765.06;;;32.74;45.90
74474;BME280;62922;-6.168;106.796;2023-07-20T08:21:52;100766.25;;;32.73;46.42
74474;BME280;62922;-6.168;106.796;2023-07-20T08:24:18;100735.81;;;32.58;45.53
74474;BME280;62922;-6.168;106.796;2023-07-20T08:26:45;100762.63;;;32.84;44.05
74474;BME280;62922;-6.168;106.796;2023-07-20T08:29:11;100767.47;;;32.84;44.73
74474;BME280;62922;-6.168;106.796;2023-07-20T08:31:37;100769.13;;;32.85;44.85
74474;BME280;62922;-6.168;106.796;2023-07-20T08:34:04;100763.22;;;32.78;45.50
74474;BME280;62922;-6.168;106.796;2023-07-20T08:36:33;100742.06;;;32.63;45.78
74474;BME280;62922;-6.168;106.796;2023-07-20T08:38:59;100765.09;;;32.86;46.15
74474;BME280;62922;-6.168;106.796;2023-07-20T08:41:25;100742.44;;;32.62;45.54
74474;BME280;62922;-6.168;106.796;2023-07-20T08:43:54;100731.53;;;32.51;45.90
74474;BME280;62922;-6.168;106.796;2023-07-20T08:46:23;100741.34;;;32.54;45.39
74474;BME280;62922;-6.168;106.796;2023-07-20T08:48:51;100775.66;;;32.77;45.49
74474;BME280;62922;-6.168;106.796;2023-07-20T08:51:19;100767.63;;;32.67;46.13
74474;BME280;62922;-6.168;106.796;2023-07-20T08:53:46;100773.28;;;32.67;45.63
74474;BME280;62922;-6.168;106.796;2023-07-20T08:56:14;100784.03;;;32.73;45.57
74474;BME280;62922;-6.168;106.796;2023-07-20T08:58:43;100731.63;;;32.43;46.27
74474;BME280;62922;-6.168;106.796;2023-07-20T09:01:15;100793.34;;;32.74;45.64
74474;BME280;62922;-6.168;106.796;2023-07-20T09:03:45;100785.22;;;32.72;46.35
74474;BME280;62922;-6.168;106.796;2023-07-20T09:06:12;100771.84;;;32.61;46.10
74474;BME280;62922;-6.168;106.796;2023-07-20T09:08:40;100783.75;;;32.66;45.14
74474;BME280;62922;-6.168;106.796;2023-07-20T09:11:07;100762.53;;;32.60;45.70
74474;BME280;62922;-6.168;106.796;2023-07-20T09:13:34;100751.19;;;32.48;45.57
74474;BME280;62922;-6.168;106.796;2023-07-20T09:16:00;100773.03;;;32.60;45.72
74474;BME280;62922;-6.168;106.796;2023-07-20T09:18:31;100777.00;;;32.58;46.37
74474;BME280;62922;-6.168;106.796;2023-07-20T09:21:03;100764.34;;;32.44;46.38
74474;BME280;62922;-6.168;106.796;2023-07-20T09:23:34;100806.22;;;32.63;45.90
74474;BME280;62922;-6.168;106.796;2023-07-20T09:26:18;100804.72;;;32.65;45.48
74474;BME280;62922;-6.168;106.796;2023-07-20T09:28:50;100776.66;;;32.39;45.39
74474;BME280;62922;-6.168;106.796;2023-07-20T09:31:20;100813.72;;;32.58;45.58
74474;BME280;62922;-6.168;106.796;2023-07-20T09:33:48;100781.31;;;32.35;46.08
74474;BME280;62922;-6.168;106.796;2023-07-20T09:36:14;100768.56;;;32.29;46.32
74474;BME280;62922;-6.168;106.796;2023-07-20T09:38:42;100772.22;;;32.30;45.53
74474;BME280;62922;-6.168;106.796;2023-07-20T09:41:14;100806.63;;;32.52;45.73
74474;BME280;62922;-6.168;106.796;2023-07-20T09:43:43;100804.28;;;32.54;46.37
74474;BME280;62922;-6.168;106.796;2023-07-20T09:46:09;100800.97;;;32.52;45.87
74474;BME280;62922;-6.168;106.796;2023-07-20T09:48:35;100808.66;;;32.52;45.88
74474;BME280;62922;-6.168;106.796;2023-07-20T09:51:02;100812.44;;;32.56;46.31
74474;BME280;62922;-6.168;106.796;2023-07-20T09:53:28;100820.09;;;32.55;46.66
74474;BME280;62922;-6.168;106.796;2023-07-20T09:55:56;100786.50;;;32.33;46.77
74474;BME280;62922;-6.168;106.796;2023-07-20T09:58:26;100818.63;;;32.49;46.20
74474;BME280;62922;-6.168;106.796;2023-07-20T10:00:56;100826.25;;;32.49;46.94
74474;BME280;62922;-6.168;106.796;2023-07-20T10:03:29;100803.56;;;32.37;46.87
74474;BME280;62922;-6.168;106.796;2023-07-20T10:06:05;100788.41;;;32.21;45.94
74474;BME280;62922;-6.168;106.796;2023-07-20T10:08:36;100822.97;;;32.47;46.52
74474;BME280;62922;-6.168;106.796;2023-07-20T10:11:06;100831.47;;;32.47;47.41
74474;BME280;62922;-6.168;106.796;2023-07-20T10:13:38;100810.72;;;32.34;47.64
74474;BME280;62922;-6.168;106.796;2023-07-20T10:16:15;100834.28;;;32.47;47.51
74474;BME280;62922;-6.168;106.796;2023-07-20T10:19:03;100832.25;;;32.47;47.95
74474;BME280;62922;-6.168;106.796;2023-07-20T10:21:36;100840.38;;;32.49;47.88
74474;BME280;62922;-6.168;106.796;2023-07-20T10:24:03;100846.88;;;32.49;47.82
74474;BME280;62922;-6.168;106.796;2023-07-20T10:26:31;100818.78;;;32.24;47.35
74474;BME280;62922;-6.168;106.796;2023-07-20T10:28:57;100862.84;;;32.45;47.83
74474;BME280;62922;-6.168;106.796;2023-07-20T10:31:25;100863.03;;;32.40;47.49
74474;BME280;62922;-6.168;106.796;2023-07-20T10:33:57;100860.06;;;32.37;47.61
74474;BME280;62922;-6.168;106.796;2023-07-20T10:36:26;100871.31;;;32.45;47.48
74474;BME280;62922;-6.168;106.796;2023-07-20T10:38:55;100872.03;;;32.42;47.75
74474;BME280;62922;-6.168;106.796;2023-07-20T10:41:28;100872.84;;;32.43;47.58
74474;BME280;62922;-6.168;106.796;2023-07-20T10:44:01;100842.91;;;32.21;47.72
74474;BME280;62922;-6.168;106.796;2023-07-20T10:49:05;100885.97;;;32.39;46.83
74474;BME280;62922;-6.168;106.796;2023-07-20T10:51:45;100866.78;;;32.24;46.87
74474;BME280;62922;-6.168;106.796;2023-07-20T10:56:44;100890.28;;;32.36;47.65
74474;BME280;62922;-6.168;106.796;2023-07-20T10:59:47;100897.13;;;32.35;47.71
74474;BME280;62922;-6.168;106.796;2023-07-20T11:02:07;100907.94;;;32.33;47.76
74474;BME280;62922;-6.168;106.796;2023-07-20T11:04:44;100897.97;;;32.36;47.95
74474;BME280;62922;-6.168;106.796;2023-07-20T11:07:16;100902.78;;;32.35;48.57
74474;BME280;62922;-6.168;106.796;2023-07-20T11:09:43;100900.16;;;32.30;48.30
74474;BME280;62922;-6.168;106.796;2023-07-20T11:14:41;100869.22;;;32.05;48.99
74474;BME280;62922;-6.168;106.796;2023-07-20T11:17:12;100901.66;;;32.28;49.45
74474;BME280;62922;-6.168;106.796;2023-07-20T11:19:39;100922.88;;;32.42;50.18
74474;BME280;62922;-6.168;106.796;2023-07-20T11:22:08;100884.69;;;32.28;51.43
74474;BME280;62922;-6.168;106.796;2023-07-20T11:24:39;100928.28;;;32.56;52.64
74474;BME280;62922;-6.168;106.796;2023-07-20T11:27:08;100913.81;;;32.58;53.51
74474;BME280;62922;-6.168;106.796;2023-07-20T11:29:37;100924.84;;;32.71;53.22
74474;BME280;62922;-6.168;106.796;2023-07-20T11:32:03;100923.81;;;32.76;54.55
74474;BME280;62922;-6.168;106.796;2023-07-20T11:34:31;100886.78;;;32.48;54.38
74474;BME280;62922;-6.168;106.796;2023-07-20T11:36:57;100919.38;;;32.66;53.24
74474;BME280;62922;-6.168;106.796;2023-07-20T11:39:24;100922.56;;;32.65;53.79
74474;BME280;62922;-6.168;106.796;2023-07-20T11:41:53;100937.38;;;32.62;53.28
74474;BME280;62922;-6.168;106.796;2023-07-20T11:44:24;100916.34;;;32.50;53.55
74474;BME280;62922;-6.168;106.796;2023-07-20T11:47:05;100941.03;;;32.62;54.52
74474;BME280;62922;-6.168;106.796;2023-07-20T11:49:36;100936.41;;;32.58;53.41
74474;BME280;62922;-6.168;106.796;2023-07-20T11:52:05;100909.09;;;32.32;54.21
74474;BME280;62922;-6.168;106.796;2023-07-20T11:54:33;100919.22;;;32.33;53.00
74474;BME280;62922;-6.168;106.796;2023-07-20T11:57:02;100935.50;;;32.45;53.13
74474;BME280;62922;-6.168;106.796;2023-07-20T11:59:28;100945.25;;;32.47;52.92
74474;BME280;62922;-6.168;106.796;2023-07-20T12:01:54;100947.59;;;32.45;52.42
74474;BME280;62922;-6.168;106.796;2023-07-20T12:04:23;100951.59;;;32.44;52.39
74474;BME280;62922;-6.168;106.796;2023-07-20T12:06:50;100948.59;;;32.41;52.12
74474;BME280;62922;-6.168;106.796;2023-07-20T12:09:16;100962.72;;;32.41;52.05
74474;BME280;62922;-6.168;106.796;2023-07-20T12:11:44;100972.03;;;32.41;51.37
74474;BME280;62922;-6.168;106.796;2023-07-20T12:14:11;100904.44;;;31.99;51.14
74474;BME280;62922;-6.168;106.796;2023-07-20T12:16:38;100975.53;;;32.38;50.62
74474;BME280;62922;-6.168;106.796;2023-07-20T12:19:07;100941.88;;;32.16;51.18
74474;BME280;62922;-6.168;106.796;2023-07-20T12:21:35;100964.13;;;32.26;51.16
74474;BME280;62922;-6.168;106.796;2023-07-20T12:24:04;100979.38;;;32.34;50.82
74474;BME280;62922;-6.168;106.796;2023-07-20T12:26:35;100983.84;;;32.35;51.41
74474;BME280;62922;-6.168;106.796;2023-07-20T12:29:01;100960.16;;;32.19;51.03
74474;BME280;62922;-6.168;106.796;2023-07-20T12:31:29;100979.41;;;32.25;51.03
74474;BME280;62922;-6.168;106.796;2023-07-20T12:33:57;100983.19;;;32.29;51.53
74474;BME280;62922;-6.168;106.796;2023-07-20T12:36:24;100976.06;;;32.23;52.21
74474;BME280;62922;-6.168;106.796;2023-07-20T12:38:51;101000.31;;;32.33;51.84
74474;BME280;62922;-6.168;106.796;2023-07-20T12:41:17;100940.94;;;32.04;51.93
74474;BME280;62922;-6.168;106.796;2023-07-20T12:43:44;100999.78;;;32.39;52.60
74474;BME280;62922;-6.168;106.796;2023-07-20T12:46:12;101000.31;;;32.33;52.66
74474;BME280;62922;-6.168;106.796;2023-07-20T12:48:39;101003.47;;;32.31;52.31
74474;BME280;62922;-6.168;106.796;2023-07-20T12:51:11;101014.75;;;32.31;51.71